Time;durP1;ratioP1;P1;durP2;ratioP2;P2;SDS_P1;SDS_P2;PMS_P1;PMS_P2;Temp;Humidity;BMP_temperature;BMP_pressure;BME280_temperature;BME280_humidity;BME280_pressure;Samples;Min_cycle;Max_cycle;Signal;HPM_P1;HPM_P2
2023/11/09 00:01:12;;;;;;;;;2.00;2.00;;;;;13.21;67.29;99940.97;5077795;28;73391;-71
2023/11/09 00:03:37;;;;;;;;;2.50;2.50;;;;;13.20;67.60;99939.28;5059097;28;45443;-71
2023/11/09 00:06:03;;;;;;;;;2.00;2.00;;;;;13.18;67.84;99930.63;5078413;28;68984;-70
2023/11/09 00:08:30;;;;;;;;;2.00;1.00;;;;;13.20;67.77;99926.16;5078015;28;46325;-70
2023/11/09 00:10:56;;;;;;;;;2.75;1.75;;;;;13.18;67.80;99928.84;5078513;28;46120;-71
2023/11/09 00:13:21;;;;;;;;;1.25;1.25;;;;;13.19;67.83;99909.53;5070487;28;45429;-70
2023/11/09 00:15:47;;;;;;;;;2.75;1.00;;;;;13.19;68.29;99912.16;5078315;28;73160;-71
2023/11/09 00:18:21;;;;;;;;;1.00;1.00;;;;;13.19;68.68;99919.19;5078352;28;46169;-71
2023/11/09 00:20:50;;;;;;;;;1.25;1.00;;;;;13.20;67.83;99919.09;5079787;28;45821;-71
2023/11/09 00:23:16;;;;;;;;;1.75;1.00;;;;;13.21;68.09;99909.44;5072893;28;45609;-71
2023/11/09 00:25:41;;;;;;;;;1.50;1.50;;;;;13.21;68.08;99906.81;5073212;28;54937;-71
2023/11/09 00:28:07;;;;;;;;;5.00;1.00;;;;;13.21;68.44;99906.81;5077291;28;46125;-71
2023/11/09 00:30:32;;;;;;;;;2.75;1.50;;;;;13.19;68.91;99900.78;5077757;28;45553;-71
2023/11/09 00:32:58;;;;;;;;;1.00;1.00;;;;;13.17;69.14;99903.50;5076485;28;45496;-71
2023/11/09 00:35:23;;;;;;;;;4.00;2.00;;;;;13.14;69.74;99901.03;5078090;28;45319;-71
2023/11/09 00:37:50;;;;;;;;;1.25;1.00;;;;;13.14;68.81;99901.03;5078583;28;45556;-70
2023/11/09 00:40:15;;;;;;;;;0.00;0.00;;;;;13.11;69.44;99891.53;5079325;28;45299;-70
2023/11/09 00:42:40;;;;;;;;;1.00;1.00;;;;;13.11;69.19;99882.81;5073413;28;45556;-70
2023/11/09 00:45:06;;;;;;;;;0.25;0.25;;;;;13.11;69.34;99886.25;5060495;28;45381;-70
2023/11/09 00:47:32;;;;;;;;;2.00;2.00;;;;;13.08;69.64;99889.06;5058493;28;48006;-70
2023/11/09 00:49:58;;;;;;;;;1.00;1.00;;;;;13.07;69.38;99890.00;5078445;28;47490;-71
2023/11/09 00:52:23;;;;;;;;;0.25;0.25;;;;;13.06;70.11;99882.19;5059151;28;45881;-70
2023/11/09 00:54:50;;;;;;;;;1.00;1.00;;;;;13.04;71.18;99879.63;5078246;28;45643;-70
2023/11/09 00:57:16;;;;;;;;;1.75;1.75;;;;;13.03;70.32;99879.69;5077767;28;46177;-70
2023/11/09 00:59:46;;;;;;;;;9.25;7.75;;;;;12.94;71.55;99865.25;5076505;28;70154;-71
2023/11/09 01:02:12;;;;;;;;;7.00;3.00;;;;;12.91;70.70;99870.69;5075995;28;45427;-71
2023/11/09 01:04:37;;;;;;;;;3.25;1.00;;;;;12.88;72.83;99870.84;5078509;28;45328;-71
2023/11/09 01:07:03;;;;;;;;;2.25;1.00;;;;;12.86;71.77;99870.91;5077116;28;46972;-70
2023/11/09 01:09:29;;;;;;;;;0.00;0.00;;;;;12.83;72.18;99870.22;5055930;28;45383;-71
2023/11/09 01:11:55;;;;;;;;;0.00;0.00;;;;;12.82;72.07;99860.63;5057679;28;69526;-71
2023/11/09 01:14:20;;;;;;;;;2.00;0.00;;;;;12.79;72.11;99869.53;5073863;28;73265;-71
2023/11/09 01:16:46;;;;;;;;;1.00;1.00;;;;;12.78;72.25;99862.56;5067095;28;46773;-71
2023/11/09 01:19:11;;;;;;;;;1.00;1.00;;;;;12.76;73.10;99869.66;5076788;28;45221;-71
2023/11/09 01:21:37;;;;;;;;;2.00;0.25;;;;;12.78;72.34;99861.72;5083695;28;60039;-71
2023/11/09 01:24:02;;;;;;;;;3.00;1.00;;;;;12.79;72.40;99866.91;5079695;28;67568;-70
2023/11/09 01:26:28;;;;;;;;;0.00;0.00;;;;;12.75;71.76;99862.75;5081916;28;68386;-70
2023/11/09 01:28:53;;;;;;;;;0.00;0.00;;;;;12.77;72.64;99865.28;5082855;28;45351;-71
2023/11/09 01:31:19;;;;;;;;;1.00;1.00;;;;;12.77;73.38;99865.28;5066732;28;45436;-70
2023/11/09 01:33:44;;;;;;;;;0.50;0.00;;;;;12.75;73.05;99852.22;5081721;28;45662;-70
2023/11/09 01:36:13;;;;;;;;;0.25;0.25;;;;;12.73;74.16;99854.94;5082702;28;45327;-70
2023/11/09 01:38:39;;;;;;;;;1.50;0.75;;;;;12.70;72.87;99838.50;5084557;28;45604;-70
2023/11/09 01:41:06;;;;;;;;;3.00;0.00;;;;;12.77;73.05;99839.03;5082433;28;68080;-69
2023/11/09 01:43:32;;;;;;;;;0.75;0.75;;;;;12.77;72.62;99834.63;5084530;28;45478;-69
2023/11/09 01:45:57;;;;;;;;;0.75;0.75;;;;;12.76;73.23;99834.69;5085676;28;46177;-70
2023/11/09 01:48:22;;;;;;;;;1.00;0.75;;;;;12.80;72.93;99842.34;5085086;28;65931;-70
2023/11/09 01:50:51;;;;;;;;;2.00;1.00;;;;;12.81;73.93;99837.94;5081735;28;68281;-70
2023/11/09 01:53:17;;;;;;;;;1.00;0.00;;;;;12.79;73.74;99831.94;5060359;28;45308;-71
2023/11/09 01:55:43;;;;;;;;;0.00;0.00;;;;;12.80;72.90;99833.59;5065633;28;45618;-70
2023/11/09 01:58:08;;;;;;;;;1.00;0.00;;;;;12.78;73.61;99825.81;5084132;28;45465;-70
2023/11/09 02:00:34;;;;;;;;;4.50;1.00;;;;;12.78;73.19;99830.22;5078847;28;45363;-70
2023/11/09 02:03:00;;;;;;;;;0.00;0.00;;;;;12.79;73.09;99834.56;5078514;28;73077;-71
2023/11/09 02:05:26;;;;;;;;;0.00;0.00;;;;;12.78;73.56;99828.44;5081747;28;59044;-71
2023/11/09 02:07:55;;;;;;;;;0.00;0.00;;;;;12.81;73.33;99832.69;5082863;28;45301;-71
2023/11/09 02:10:21;;;;;;;;;0.00;0.00;;;;;12.80;73.29;99834.47;5048779;28;45365;-70
2023/11/09 02:12:46;;;;;;;;;0.00;0.00;;;;;12.80;72.97;99829.22;5059917;28;45561;-71
2023/11/09 02:15:12;;;;;;;;;0.25;0.00;;;;;12.84;73.09;99816.78;5061354;28;71428;-71
2023/11/09 02:17:37;;;;;;;;;0.00;0.00;;;;;12.87;73.07;99813.97;5080339;28;45422;-71
2023/11/09 02:20:04;;;;;;;;;0.00;0.00;;;;;12.87;72.54;99813.97;5066185;28;45301;-71
2023/11/09 02:22:30;;;;;;;;;2.00;0.00;;;;;12.88;72.96;99810.44;5044666;28;45381;-71
2023/11/09 02:24:56;;;;;;;;;0.00;0.00;;;;;12.90;72.33;99812.03;5066004;28;45525;-71
2023/11/09 02:27:22;;;;;;;;;1.75;0.00;;;;;12.89;72.54;99813.00;5084093;28;66806;-71
2023/11/09 02:29:47;;;;;;;;;0.00;0.00;;;;;12.90;73.14;99809.41;5076600;28;45446;-71
2023/11/09 02:32:12;;;;;;;;;0.00;0.00;;;;;12.89;73.38;99814.75;5067931;28;71937;-70
2023/11/09 02:34:38;;;;;;;;;1.00;0.00;;;;;12.87;75.35;99816.59;5074739;28;45402;-71
2023/11/09 02:37:07;;;;;;;;;0.00;0.00;;;;;12.82;73.73;99824.75;5072823;28;45474;-70
2023/11/09 02:39:32;;;;;;;;;2.00;0.00;;;;;12.82;74.01;99822.13;5063316;28;45564;-70
2023/11/09 02:41:59;;;;;;;;;0.00;0.00;;;;;12.83;73.05;99822.94;5079668;28;45409;-71
2023/11/09 02:44:24;;;;;;;;;0.25;0.00;;;;;12.80;72.49;99823.09;5072686;28;47158;-71
2023/11/09 02:46:49;;;;;;;;;1.75;1.00;;;;;12.73;72.18;99831.31;5078872;28;72912;-71
2023/11/09 02:49:15;;;;;;;;;0.75;0.25;;;;;12.68;72.23;99828.06;5076533;28;55383;-71
2023/11/09 02:51:40;;;;;;;;;2.25;0.00;;;;;12.65;72.13;99824.75;5044489;28;70104;-71
2023/11/09 02:54:06;;;;;;;;;1.00;0.00;;;;;12.68;72.06;99825.44;5079832;28;63769;-71
2023/11/09 02:56:32;;;;;;;;;3.00;1.00;;;;;12.66;71.37;99814.16;5065407;28;45526;-69
2023/11/09 02:58:58;;;;;;;;;4.00;2.25;;;;;12.67;71.47;99815.00;5063210;28;45324;-71
2023/11/09 03:01:23;;;;;;;;;2.25;0.50;;;;;12.70;71.52;99830.59;5077276;28;73259;-72
2023/11/09 03:03:51;;;;;;;;;3.00;1.00;;;;;12.72;71.51;99839.25;5070793;28;74580;-71
2023/11/09 03:06:17;;;;;;;;;7.25;2.00;;;;;12.71;71.56;99843.66;5076847;28;46479;-71
2023/11/09 03:08:42;;;;;;;;;1.00;1.00;;;;;12.73;71.59;99840.97;5079138;28;45407;-71
2023/11/09 03:11:07;;;;;;;;;3.00;1.00;;;;;12.72;71.47;99845.34;5079218;28;73262;-71
2023/11/09 03:13:34;;;;;;;;;3.25;1.00;;;;;12.72;71.03;99847.97;5064266;28;75115;-71
2023/11/09 03:15:59;;;;;;;;;1.00;1.00;;;;;12.73;71.52;99844.44;5060319;28;45903;-71
2023/11/09 03:18:24;;;;;;;;;2.00;0.00;;;;;12.75;71.14;99843.50;5061978;28;45327;-70
2023/11/09 03:20:50;;;;;;;;;3.00;1.00;;;;;12.73;71.49;99838.34;5076762;28;45136;-71
2023/11/09 03:23:16;;;;;;;;;5.25;1.00;;;;;12.76;71.57;99840.78;5079272;28;45418;-71
2023/11/09 03:25:41;;;;;;;;;1.50;1.00;;;;;12.77;71.44;99831.16;5062145;28;45320;-71
2023/11/09 03:28:07;;;;;;;;;2.00;1.00;;;;;12.77;70.90;99837.25;5080513;28;45291;-71
2023/11/09 03:30:35;;;;;;;;;1.50;1.00;;;;;12.78;71.00;99840.72;5080624;28;45544;-71
2023/11/09 03:33:00;;;;;;;;;1.00;1.00;;;;;12.79;70.82;99850.31;5076404;28;46148;-71
2023/11/09 03:35:26;;;;;;;;;2.75;1.00;;;;;12.80;70.81;99851.97;5060813;28;45915;-70
2023/11/09 03:37:51;;;;;;;;;3.25;2.00;;;;;12.79;70.67;99856.41;5077553;28;67925;-71
2023/11/09 03:40:16;;;;;;;;;2.25;1.00;;;;;12.79;70.97;99856.41;5075627;28;46500;-70
2023/11/09 03:42:43;;;;;;;;;5.25;0.75;;;;;12.81;70.45;99854.53;5071063;28;75822;-71
2023/11/09 03:45:09;;;;;;;;;3.50;1.00;;;;;12.80;70.45;99855.47;5057995;28;45292;-70
2023/11/09 03:47:34;;;;;;;;;1.00;1.00;;;;;12.77;70.00;99849.53;5074830;28;45535;-70
2023/11/09 03:49:59;;;;;;;;;1.50;1.00;;;;;12.77;69.89;99849.53;5079000;28;69471;-71
2023/11/09 03:52:27;;;;;;;;;4.75;1.25;;;;;12.76;69.94;99847.81;5072553;28;46261;-71
2023/11/09 03:54:55;;;;;;;;;1.25;1.00;;;;;12.76;69.69;99843.41;5075891;28;45446;-71
2023/11/09 03:57:21;;;;;;;;;5.00;1.00;;;;;12.78;69.89;99843.34;5061473;28;45342;-71
2023/11/09 03:59:46;;;;;;;;;2.50;1.00;;;;;12.77;69.75;99845.13;5079570;28;45417;-71
2023/11/09 04:02:11;;;;;;;;;3.75;1.50;;;;;12.75;69.36;99833.84;5058749;28;73349;-71
2023/11/09 04:04:36;;;;;;;;;2.00;2.00;;;;;12.73;69.61;99830.47;5040593;28;59712;-71
2023/11/09 04:07:02;;;;;;;;;1.50;1.00;;;;;12.71;69.10;99833.16;5068246;28;64674;-70
2023/11/09 04:09:27;;;;;;;;;3.00;1.00;;;;;12.73;69.00;99844.44;5076855;28;45343;-70
2023/11/09 04:11:53;;;;;;;;;4.00;1.00;;;;;12.74;69.05;99842.66;5075793;28;59224;-69
2023/11/09 04:14:19;;;;;;;;;1.00;1.00;;;;;12.73;69.01;99843.59;5079405;28;45236;-70
2023/11/09 04:16:44;;;;;;;;;2.25;1.25;;;;;12.73;68.87;99844.44;5078687;28;69330;-70
2023/11/09 04:19:09;;;;;;;;;4.00;1.00;;;;;12.72;68.70;99841.88;5040805;28;45459;-70
2023/11/09 04:21:35;;;;;;;;;1.75;0.00;;;;;12.68;68.49;99846.44;5071679;28;66925;-70
2023/11/09 04:24:00;;;;;;;;;3.50;0.50;;;;;12.62;69.00;99849.34;5078384;28;45540;-70
2023/11/09 04:26:26;;;;;;;;;5.00;1.00;;;;;12.63;68.83;99853.69;5066894;28;45503;-70
2023/11/09 04:28:51;;;;;;;;;7.50;2.00;;;;;12.62;68.49;99867.72;5078495;28;45299;-70
2023/11/09 04:31:21;;;;;;;;;0.00;0.00;;;;;12.60;68.36;99869.56;5077621;28;74547;-70
2023/11/09 04:33:47;;;;;;;;;0.75;0.75;;;;;12.60;68.68;99874.00;5073154;28;45106;-70
2023/11/09 04:36:12;;;;;;;;;5.50;2.25;;;;;12.57;68.54;99876.75;5077722;28;45384;-69
2023/11/09 04:38:38;;;;;;;;;3.50;1.00;;;;;12.56;68.59;99882.94;5047621;28;45549;-69
2023/11/09 04:41:09;;;;;;;;;2.00;1.00;;;;;12.54;68.40;99886.47;5075561;28;46392;-69
2023/11/09 04:43:35;;;;;;;;;2.25;0.00;;;;;12.53;68.43;99878.69;5059181;28;45875;-70
2023/11/09 04:46:06;;;;;;;;;3.25;0.25;;;;;12.56;68.82;99875.06;5076049;28;45482;-70
2023/11/09 04:48:33;;;;;;;;;4.50;1.00;;;;;12.57;68.64;99875.00;5075682;28;45287;-70
2023/11/09 04:51:04;;;;;;;;;2.00;1.25;;;;;12.57;69.02;99882.00;5075965;28;47143;-70
2023/11/09 04:53:40;;;;;;;;;3.25;1.00;;;;;12.56;69.06;99885.56;5053028;28;46409;-70
2023/11/09 04:56:19;;;;;;;;;4.50;1.00;;;;;12.57;68.94;99887.25;5080169;28;45291;-70
2023/11/09 04:58:47;;;;;;;;;6.00;1.00;;;;;12.56;68.73;99882.94;5078012;28;45383;-71
2023/11/09 05:06:48;;;;;;;;;3.50;1.00;;;;;12.51;68.76;99889.25;5077024;28;45656;-71
2023/11/09 05:09:23;;;;;;;;;2.00;2.00;;;;;12.51;68.83;99894.50;5077169;28;45405;-71
2023/11/09 05:11:49;;;;;;;;;7.25;2.50;;;;;12.51;68.94;99896.28;5074248;28;46909;-70
2023/11/09 05:14:15;;;;;;;;;1.75;1.00;;;;;12.48;69.10;99889.41;5056324;28;45460;-70
2023/11/09 05:16:40;;;;;;;;;4.00;2.00;;;;;12.45;69.02;99889.56;5078038;28;45462;-73
2023/11/09 05:19:06;;;;;;;;;4.25;2.00;;;;;12.40;69.14;99890.72;5078185;28;45471;-70
2023/11/09 05:21:31;;;;;;;;;2.00;1.00;;;;;12.39;68.82;99889.00;5073720;28;75285;-69
2023/11/09 05:23:56;;;;;;;;;5.00;1.75;;;;;12.35;68.80;99894.38;5071868;28;63770;-71
2023/11/09 05:26:25;;;;;;;;;4.25;2.00;;;;;12.30;69.12;99891.13;5075732;28;45345;-70
2023/11/09 05:28:51;;;;;;;;;1.00;1.00;;;;;12.29;69.08;99892.06;5041554;28;45565;-70
2023/11/09 05:31:17;;;;;;;;;4.25;1.25;;;;;12.27;68.91;99890.44;5077677;28;49851;-70
2023/11/09 05:33:44;;;;;;;;;5.00;1.00;;;;;12.25;68.90;99897.53;5072250;28;45585;-70
2023/11/09 05:36:10;;;;;;;;;5.25;3.00;;;;;12.21;68.80;99899.44;5074861;28;45490;-70
2023/11/09 05:38:36;;;;;;;;;4.50;1.75;;;;;12.21;68.61;99902.06;5076047;28;45307;-70
2023/11/09 05:41:01;;;;;;;;;4.00;1.00;;;;;12.19;69.23;99901.28;5056750;28;47229;-70
2023/11/09 05:43:29;;;;;;;;;3.75;1.75;;;;;12.17;68.85;99903.13;5074872;28;46057;-71
2023/11/09 05:45:54;;;;;;;;;2.00;1.00;;;;;12.14;68.73;99908.53;5055907;28;45297;-70
2023/11/09 05:48:20;;;;;;;;;5.50;1.75;;;;;12.11;69.06;99908.66;5071724;28;56539;-70
2023/11/09 05:50:45;;;;;;;;;4.50;1.00;;;;;12.10;68.83;99915.69;5075847;28;75618;-70
2023/11/09 05:53:12;;;;;;;;;3.75;2.00;;;;;12.09;69.44;99907.88;5049391;28;72490;-70
2023/11/09 05:55:38;;;;;;;;;4.00;1.75;;;;;12.11;69.08;99906.03;5076601;28;45685;-72
2023/11/09 05:58:03;;;;;;;;;5.75;1.00;;;;;12.09;68.91;99903.50;5078709;28;45332;-72
2023/11/09 06:00:30;;;;;;;;;2.50;1.75;;;;;12.10;69.35;99920.09;5078547;28;45953;-72
2023/11/09 06:02:55;;;;;;;;;3.50;1.50;;;;;12.10;69.18;99927.97;5076978;28;45772;-72
2023/11/09 06:05:24;;;;;;;;;3.00;2.75;;;;;12.12;69.22;99936.59;5077701;28;45534;-73
2023/11/09 06:07:51;;;;;;;;;2.50;2.00;;;;;12.06;69.04;99922.00;5061715;28;45575;-71
2023/11/09 06:10:17;;;;;;;;;4.00;1.00;;;;;12.11;69.11;99930.50;5057372;28;45488;-71
2023/11/09 06:12:42;;;;;;;;;1.75;1.00;;;;;12.13;68.85;99931.28;5055219;28;73207;-71
2023/11/09 06:15:07;;;;;;;;;4.50;2.00;;;;;12.14;69.09;99932.97;5076286;28;61855;-71
2023/11/09 06:17:36;;;;;;;;;5.25;1.00;;;;;12.15;68.93;99928.59;5073302;28;45821;-70
2023/11/09 06:20:01;;;;;;;;;2.25;2.00;;;;;12.12;69.12;99934.81;5080074;28;45624;-71
2023/11/09 06:22:27;;;;;;;;;4.25;1.00;;;;;12.13;69.26;99941.78;5059982;28;45334;-71
2023/11/09 06:24:52;;;;;;;;;3.00;1.25;;;;;12.15;68.99;99946.97;5080775;28;45210;-70
2023/11/09 06:27:18;;;;;;;;;2.75;1.00;;;;;12.15;68.87;99957.44;5081905;28;45337;-71
2023/11/09 06:29:43;;;;;;;;;3.50;2.00;;;;;12.14;68.80;99955.72;5078535;28;71470;-70
2023/11/09 06:32:08;;;;;;;;;2.25;2.00;;;;;12.14;68.68;99958.34;5060255;28;45379;-70
2023/11/09 06:34:35;;;;;;;;;3.75;2.00;;;;;12.11;69.12;99969.84;5080409;28;58113;-71
2023/11/09 06:37:01;;;;;;;;;3.00;2.00;;;;;12.08;68.87;99969.97;5080667;28;45526;-68
2023/11/09 06:39:26;;;;;;;;;4.00;1.00;;;;;12.09;68.70;99974.31;5078026;28;72469;-68
2023/11/09 06:41:51;;;;;;;;;4.75;2.25;;;;;12.05;68.79;99980.59;5075381;28;67849;-79
2023/11/09 06:44:17;;;;;;;;;3.00;1.00;;;;;12.09;68.90;99983.94;5075909;28;45318;-71
2023/11/09 06:46:44;;;;;;;;;1.00;1.00;;;;;12.06;68.40;99978.84;5061846;28;45519;-69
2023/11/09 06:49:11;;;;;;;;;57.25;42.00;;;;;12.04;68.66;99984.16;5076164;28;45326;-68
2023/11/09 06:51:37;;;;;;;;;47.25;33.25;;;;;12.04;68.97;99984.16;5052337;28;47003;-67
2023/11/09 06:54:04;;;;;;;;;4.25;2.00;;;;;12.04;68.58;99978.91;5063420;28;45221;-80
2023/11/09 06:56:32;;;;;;;;;1.75;1.25;;;;;12.05;68.62;99983.22;5062725;28;45526;-67
2023/11/09 06:58:59;;;;;;;;;2.25;1.50;;;;;12.04;68.82;99994.66;5056618;28;45438;-69
2023/11/09 07:01:24;;;;;;;;;0.50;0.00;;;;;12.01;68.21;99986.91;5073374;28;45983;-71
2023/11/09 07:03:51;;;;;;;;;2.50;1.00;;;;;11.99;68.27;99994.00;5077117;28;45440;-73
2023/11/09 07:06:17;;;;;;;;;4.75;1.00;;;;;12.00;68.50;99992.22;5079880;28;45511;-70
2023/11/09 07:08:43;;;;;;;;;2.00;1.00;;;;;11.98;68.46;100000.16;5055871;28;48254;-68
2023/11/09 07:11:09;;;;;;;;;5.00;2.75;;;;;11.97;68.63;100006.34;5071175;28;45257;-69
2023/11/09 07:13:36;;;;;;;;;2.50;1.00;;;;;11.93;68.63;100007.38;5076408;28;44738;-76
2023/11/09 07:16:02;;;;;;;;;4.25;2.00;;;;;11.93;68.35;100010.00;5081324;28;45578;-71
2023/11/09 07:18:27;;;;;;;;;3.00;1.75;;;;;11.94;68.30;99995.97;5040421;28;46853;-72
2023/11/09 07:20:53;;;;;;;;;3.25;1.00;;;;;11.95;68.44;100001.16;5079070;28;45436;-76
2023/11/09 07:23:23;;;;;;;;;2.50;1.00;;;;;11.97;68.41;100003.72;5068786;28;70428;-73
2023/11/09 07:25:49;;;;;;;;;4.00;1.00;;;;;11.99;68.48;100016.75;5079543;28;45596;-72
2023/11/09 07:28:15;;;;;;;;;4.00;2.00;;;;;11.99;68.70;100020.22;5071623;28;46044;-72
2023/11/09 07:30:40;;;;;;;;;3.50;1.00;;;;;11.98;68.17;100021.13;5062200;28;45700;-68
2023/11/09 07:33:06;;;;;;;;;4.50;2.50;;;;;11.94;68.15;100017.81;5076726;28;45535;-68
2023/11/09 07:35:31;;;;;;;;;4.50;1.25;;;;;11.94;68.34;100017.81;5078693;28;68387;-68
2023/11/09 07:37:57;;;;;;;;;5.00;1.00;;;;;11.92;68.48;100021.44;5059279;28;64939;-73
2023/11/09 07:40:33;;;;;;;;;4.50;2.00;;;;;11.92;68.26;100022.25;5079709;28;45427;-71
2023/11/09 07:42:59;;;;;;;;;5.75;0.00;;;;;11.86;68.48;100013.78;5057295;28;45486;-69
2023/11/09 07:45:25;;;;;;;;;3.75;1.25;;;;;11.86;68.45;100026.88;5032806;28;45426;-69
2023/11/09 07:47:51;;;;;;;;;1.25;1.25;;;;;11.82;68.90;100027.94;5079156;28;45412;-68
2023/11/09 07:50:16;;;;;;;;;2.00;2.00;;;;;11.78;68.80;100030.69;5078925;28;45347;-72
2023/11/09 07:52:42;;;;;;;;;3.25;2.00;;;;;11.75;69.11;100024.75;5077781;28;45487;-69
2023/11/09 07:55:07;;;;;;;;;4.00;1.00;;;;;11.72;68.71;100024.88;5025684;28;53921;-69
2023/11/09 07:57:34;;;;;;;;;4.75;1.75;;;;;11.74;68.73;100030.91;5073840;28;47159;-71
2023/11/09 08:00:00;;;;;;;;;8.75;3.25;;;;;11.76;69.13;100029.91;5063096;28;45321;-69
2023/11/09 08:02:26;;;;;;;;;117.50;94.50;;;;;11.78;69.32;100029.84;5076431;28;45649;-71
2023/11/09 08:04:54;;;;;;;;;5.00;2.00;;;;;11.81;69.02;100037.59;5068600;28;45600;-70
2023/11/09 08:07:21;;;;;;;;;4.00;1.00;;;;;11.83;68.78;100038.38;5075792;28;45540;-71
2023/11/09 08:09:47;;;;;;;;;2.00;2.00;;;;;11.88;68.41;100043.41;5035454;28;45528;-69
2023/11/09 08:12:12;;;;;;;;;2.00;2.00;;;;;11.93;68.35;100041.47;5059542;28;45328;-70
2023/11/09 08:14:38;;;;;;;;;4.50;1.25;;;;;11.98;68.52;100042.13;5058923;28;75330;-71
2023/11/09 08:17:03;;;;;;;;;2.25;2.25;;;;;12.04;68.28;100038.38;5062237;28;47969;-70
2023/11/09 08:19:28;;;;;;;;;3.25;2.50;;;;;12.10;68.17;100036.34;5079273;28;45303;-71
2023/11/09 08:21:54;;;;;;;;;4.75;1.50;;;;;12.19;67.93;100031.59;5047791;28;58008;-70
2023/11/09 08:24:19;;;;;;;;;3.75;2.00;;;;;12.27;67.02;100035.59;5074054;28;49887;-71
2023/11/09 08:26:46;;;;;;;;;2.00;1.25;;;;;12.34;67.45;100031.75;5078443;28;60108;-67
2023/11/09 08:29:12;;;;;;;;;25.50;18.50;;;;;12.43;66.72;100027.00;5071465;28;45344;-67
2023/11/09 08:31:38;;;;;;;;;34.00;20.50;;;;;12.51;66.84;100028.34;5051657;28;45486;-66
2023/11/09 08:34:04;;;;;;;;;10.25;3.25;;;;;12.61;66.45;100038.44;5037356;28;45491;-67
2023/11/09 08:36:30;;;;;;;;;4.25;2.00;;;;;12.67;66.56;100048.63;5077069;28;47238;-65
2023/11/09 08:38:56;;;;;;;;;4.00;2.00;;;;;12.69;65.20;100033.66;5057609;28;45636;-66
2023/11/09 08:41:21;;;;;;;;;3.50;3.00;;;;;12.71;65.94;100035.31;5053167;28;45660;-67
2023/11/09 08:43:49;;;;;;;;;3.50;2.25;;;;;12.69;64.70;100029.25;5054015;28;45403;-67
2023/11/09 08:46:14;;;;;;;;;5.75;2.25;;;;;12.73;65.81;100033.47;5052527;28;46746;-67
2023/11/09 08:48:40;;;;;;;;;6.25;3.00;;;;;12.71;64.53;100034.44;5055945;28;45508;-67
2023/11/09 08:51:10;;;;;;;;;4.00;2.00;;;;;12.73;65.47;100037.88;5057907;28;45309;-66
2023/11/09 08:53:36;;;;;;;;;1.50;1.50;;;;;12.71;64.79;100040.56;5053066;28;45401;-66
2023/11/09 08:56:02;;;;;;;;;7.00;2.25;;;;;12.74;65.20;100034.28;5054153;28;45360;-67
2023/11/09 08:58:28;;;;;;;;;6.75;2.75;;;;;12.80;65.37;100028.78;5036119;28;45271;-68
2023/11/09 09:01:01;;;;;;;;;3.75;2.75;;;;;12.84;64.15;100030.31;5058052;28;45281;-67
2023/11/09 09:03:29;;;;;;;;;3.00;3.00;;;;;12.86;64.63;100028.47;5055213;28;45542;-66
2023/11/09 09:05:55;;;;;;;;;2.75;2.75;;;;;12.90;63.84;100026.53;5055602;28;45895;-67
2023/11/09 09:08:23;;;;;;;;;5.00;3.00;;;;;12.87;63.82;100022.31;5054385;28;45325;-65
2023/11/09 09:10:49;;;;;;;;;4.00;2.00;;;;;12.90;64.37;100021.28;5059882;28;45361;-65
2023/11/09 09:13:15;;;;;;;;;5.25;3.00;;;;;12.88;64.13;100013.47;5053228;28;45312;-65
2023/11/09 09:15:40;;;;;;;;;2.50;2.50;;;;;12.88;63.09;100010.84;5057133;28;75590;-65
2023/11/09 09:18:09;;;;;;;;;6.00;4.00;;;;;12.87;64.24;100003.03;5058002;28;45339;-67
2023/11/09 09:20:34;;;;;;;;;2.75;2.75;;;;;12.87;63.99;100009.16;5059605;28;45287;-65
2023/11/09 09:23:04;;;;;;;;;5.00;4.00;;;;;12.87;64.40;100003.91;5049056;28;51662;-67
2023/11/09 09:25:29;;;;;;;;;6.00;2.00;;;;;12.89;63.57;99996.81;5035720;28;45361;-67
2023/11/09 09:27:55;;;;;;;;;10.25;3.75;;;;;12.93;63.89;99991.41;5039814;28;45350;-67
2023/11/09 09:30:22;;;;;;;;;4.75;2.75;;;;;12.98;64.30;99999.91;5052900;28;45521;-66
2023/11/09 09:32:48;;;;;;;;;9.00;3.00;;;;;13.02;63.46;99997.06;5047257;28;45419;-67
2023/11/09 09:35:14;;;;;;;;;5.25;3.00;;;;;13.08;63.81;99998.53;5043908;28;45228;-67
2023/11/09 09:37:41;;;;;;;;;4.75;3.00;;;;;13.17;63.72;99998.06;5049370;28;45587;-67
2023/11/09 09:40:19;;;;;;;;;4.75;2.00;;;;;13.25;63.81;99984.56;5060080;28;45399;-67
2023/11/09 09:42:50;;;;;;;;;5.00;3.50;;;;;13.35;63.45;99984.97;5068563;27;45513;-67
2023/11/09 09:45:32;;;;;;;;;5.25;3.50;;;;;13.37;62.86;99983.09;5057989;28;45316;-67
2023/11/09 09:48:01;;;;;;;;;8.00;3.75;;;;;13.46;62.47;99980.03;5063415;28;45826;-67
2023/11/09 09:50:37;;;;;;;;;7.50;4.00;;;;;13.54;62.39;99977.00;5076407;28;45406;-65
2023/11/09 09:53:03;;;;;;;;;4.00;3.00;;;;;13.50;61.78;99971.06;5067157;28;45444;-66
2023/11/09 09:55:28;;;;;;;;;5.75;3.00;;;;;13.49;62.68;99966.72;5072610;28;48932;-67
2023/11/09 09:57:55;;;;;;;;;6.50;3.75;;;;;13.47;62.28;99963.31;5068580;28;45351;-67
2023/11/09 10:00:25;;;;;;;;;6.25;3.25;;;;;13.44;61.26;99964.34;5073365;28;45293;-67
2023/11/09 10:02:54;;;;;;;;;6.75;4.50;;;;;13.44;62.23;99953.00;5076698;28;45569;-67
2023/11/09 10:05:23;;;;;;;;;6.50;3.75;;;;;13.40;62.24;99952.28;5074602;28;46148;-68
2023/11/09 10:08:15;;;;;;;;;4.00;4.00;;;;;13.40;62.20;99956.69;5069966;28;45320;-65
2023/11/09 10:10:44;;;;;;;;;4.00;3.00;;;;;13.42;62.80;99965.34;5059625;28;45278;-67
2023/11/09 10:13:12;;;;;;;;;7.25;3.25;;;;;13.44;62.70;99971.38;5079146;28;45473;-67
2023/11/09 10:15:37;;;;;;;;;7.00;2.00;;;;;13.49;62.79;99971.97;5082439;28;45404;-67
2023/11/09 10:18:04;;;;;;;;;13.50;4.25;;;;;13.53;62.56;99986.69;5054591;28;73161;-67
2023/11/09 10:20:30;;;;;;;;;6.25;3.50;;;;;13.55;62.36;99979.56;5078251;28;45511;-67
2023/11/09 10:22:57;;;;;;;;;4.25;3.25;;;;;13.56;62.41;99975.13;5046639;28;45836;-67
2023/11/09 10:25:27;;;;;;;;;4.25;3.50;;;;;13.55;61.77;99971.66;5080480;28;46919;-67
2023/11/09 10:28:00;;;;;;;;;9.25;4.75;;;;;13.57;62.06;99974.22;5081698;28;45816;-67
2023/11/09 10:30:46;;;;;;;;;6.00;3.50;;;;;13.60;62.41;99963.56;5072229;28;45427;-67
2023/11/09 10:33:13;;;;;;;;;4.75;2.50;;;;;13.59;62.03;99960.06;5066786;28;45488;-67
2023/11/09 10:35:40;;;;;;;;;2.50;2.50;;;;;13.60;61.42;99958.31;5075616;28;46806;-67
2023/11/09 10:38:08;;;;;;;;;4.00;2.00;;;;;13.58;61.91;99955.75;5078561;28;45814;-67
2023/11/09 10:40:37;;;;;;;;;4.75;2.25;;;;;13.58;62.34;99954.88;5065259;28;45343;-67
2023/11/09 10:43:05;;;;;;;;;6.25;4.00;;;;;13.61;62.69;99945.06;5067873;28;45376;-67
2023/11/09 10:45:36;;;;;;;;;5.00;2.75;;;;;13.62;62.22;99945.91;5055494;28;45523;-67
2023/11/09 10:48:04;;;;;;;;;6.50;3.25;;;;;13.68;62.17;99945.59;5064465;28;45271;-67
2023/11/09 10:50:29;;;;;;;;;3.75;3.00;;;;;13.68;62.04;99940.31;5055685;28;45438;-67
2023/11/09 10:52:56;;;;;;;;;7.00;3.50;;;;;13.68;62.18;99933.28;5053714;28;45344;-67
2023/11/09 10:55:22;;;;;;;;;6.50;3.50;;;;;13.72;62.03;99933.13;5064125;28;45406;-67
2023/11/09 10:57:49;;;;;;;;;5.25;4.00;;;;;13.72;62.38;99925.25;5066175;28;73138;-67
2023/11/09 11:00:31;;;;;;;;;4.00;3.00;;;;;13.75;62.37;99932.97;5076049;28;45520;-67
2023/11/09 11:03:04;;;;;;;;;6.75;2.00;;;;;13.80;62.93;99931.78;5081890;28;45304;-67
2023/11/09 11:05:31;;;;;;;;;8.00;4.00;;;;;13.86;62.91;99931.47;5055519;28;46928;-67
2023/11/09 11:08:05;;;;;;;;;5.50;3.00;;;;;13.86;62.16;99934.09;5073780;28;45807;-67
2023/11/09 11:10:31;;;;;;;;;3.75;2.00;;;;;13.81;62.32;99928.25;5062865;28;45402;-68
2023/11/09 11:13:08;;;;;;;;;3.25;2.00;;;;;13.78;62.82;99924.94;5048331;28;74133;-67
2023/11/09 11:15:48;;;;;;;;;7.75;2.75;;;;;13.72;63.00;99912.94;5069918;28;46992;-67
2023/11/09 11:18:33;;;;;;;;;7.50;3.25;;;;;13.68;63.20;99914.03;5073939;28;45378;-67
2023/11/09 11:21:07;;;;;;;;;9.75;5.00;;;;;13.61;63.49;99910.88;5055773;28;45613;-67
2023/11/09 11:23:52;;;;;;;;;4.75;3.00;;;;;13.59;63.64;99909.28;5062600;28;45490;-66
2023/11/09 11:26:18;;;;;;;;;6.50;5.00;;;;;13.54;63.88;99904.25;5052213;28;47171;-67
2023/11/09 11:28:44;;;;;;;;;9.50;4.00;;;;;13.58;64.13;99897.91;5071618;28;45799;-67
2023/11/09 11:31:13;;;;;;;;;10.75;4.00;;;;;13.60;64.00;99896.03;5051198;28;69509;-66
2023/11/09 11:33:39;;;;;;;;;7.75;3.75;;;;;13.67;64.26;99888.69;5081570;28;45520;-66
2023/11/09 11:36:07;;;;;;;;;12.50;5.00;;;;;13.74;64.29;99881.28;5056196;28;45201;-66